createdAt,value
2023-11-14T00:01:51.239Z,97.75
2023-11-14T00:04:22.207Z,97.77
2023-11-14T00:06:53.252Z,97.68
2023-11-14T00:09:24.627Z,97.62
2023-11-14T00:11:55.698Z,97.55
2023-11-14T00:14:25.235Z,97.43
2023-11-14T00:16:56.312Z,97.32
2023-11-14T00:19:27.888Z,97.23
2023-11-14T00:21:59.150Z,97.20
2023-11-14T00:24:30.063Z,97.17
2023-11-14T00:27:01.786Z,97.14
2023-11-14T00:29:32.907Z,96.95
2023-11-14T00:32:04.161Z,97.00
2023-11-14T00:34:35.206Z,96.71
2023-11-14T00:37:07.589Z,96.58
2023-11-14T00:39:38.544Z,96.52
2023-11-14T00:42:10.141Z,96.33
2023-11-14T00:44:41.078Z,96.08
2023-11-14T00:47:13.537Z,95.85
2023-11-14T00:49:44.666Z,95.78
2023-11-14T00:52:16.027Z,95.71
2023-11-14T00:54:47.327Z,95.75
2023-11-14T00:57:19.924Z,95.98
2023-11-14T00:59:50.904Z,95.97
2023-11-14T01:02:21.863Z,96.10
2023-11-14T01:04:53.753Z,96.23
2023-11-14T01:07:24.761Z,96.10
2023-11-14T01:09:55.699Z,95.99
2023-11-14T01:12:27.128Z,95.90
2023-11-14T01:14:58.224Z,95.83
2023-11-14T01:17:29.391Z,95.67
2023-11-14T01:19:58.890Z,95.61
2023-11-14T01:22:30.084Z,95.68
2023-11-14T01:25:01.832Z,95.66
2023-11-14T01:27:34.209Z,95.53
2023-11-14T01:30:05.300Z,95.52
2023-11-14T01:32:34.929Z,95.50
2023-11-14T01:35:06.981Z,95.34
2023-11-14T01:37:37.948Z,95.42
2023-11-14T01:40:11.412Z,95.46
2023-11-14T01:42:42.446Z,95.05
2023-11-14T01:45:13.524Z,95.04
2023-11-14T01:47:47.766Z,95.36
2023-11-14T01:50:20.492Z,95.79
2023-11-14T01:52:51.489Z,95.92
2023-11-14T01:55:23.652Z,96.13
2023-11-14T01:57:56.188Z,96.15
2023-11-14T02:00:28.327Z,96.20
2023-11-14T02:02:59.958Z,96.35
2023-11-14T02:05:31.380Z,96.27
2023-11-14T02:08:02.463Z,96.30
2023-11-14T02:10:33.933Z,96.28
2023-11-14T02:13:05.083Z,96.25
2023-11-14T02:15:36.335Z,96.20
2023-11-14T02:18:09.574Z,96.14
2023-11-14T02:20:49.330Z,96.06
2023-11-14T02:23:21.737Z,95.87
2023-11-14T02:25:52.873Z,95.58
2023-11-14T02:28:23.902Z,95.57
2023-11-14T02:30:55.533Z,95.37
2023-11-14T02:33:27.461Z,95.33
2023-11-14T02:35:58.823Z,95.09
2023-11-14T02:38:29.863Z,94.83
2023-11-14T02:40:59.553Z,94.77
2023-11-14T02:43:30.779Z,94.59
2023-11-14T02:46:01.828Z,94.59
2023-11-14T02:48:33.041Z,94.45
2023-11-14T02:51:04.131Z,94.60
2023-11-14T02:53:35.848Z,94.69
2023-11-14T02:56:08.301Z,94.77
2023-11-14T02:58:39.979Z,94.82
2023-11-14T03:01:11.418Z,94.89
2023-11-14T03:03:47.651Z,94.79
2023-11-14T03:06:18.707Z,94.90
2023-11-14T03:08:49.854Z,94.96
2023-11-14T03:11:20.927Z,94.83
2023-11-14T03:13:52.967Z,95.03
2023-11-14T03:16:24.376Z,95.02
2023-11-14T03:18:56.046Z,95.15
2023-11-14T03:21:27.064Z,95.02
2023-11-14T03:23:58.004Z,95.25
2023-11-14T03:26:36.569Z,95.21
2023-11-14T03:29:07.902Z,95.65
2023-11-14T03:31:39.971Z,95.58
2023-11-14T03:34:11.179Z,95.29
2023-11-14T03:36:42.215Z,95.20
2023-11-14T03:39:14.871Z,95.39
2023-11-14T03:41:46.162Z,95.61
2023-11-14T03:44:15.609Z,96.05
2023-11-14T03:46:46.993Z,96.26
2023-11-14T03:49:18.140Z,96.16
2023-11-14T03:51:48.151Z,95.83
2023-11-14T03:54:19.050Z,95.94
2023-11-14T03:56:50.125Z,96.12
2023-11-14T03:59:21.329Z,95.97
2023-11-14T04:01:52.357Z,96.20
2023-11-14T04:04:21.883Z,96.58
2023-11-14T04:06:53.013Z,96.99
2023-11-14T04:09:24.522Z,97.55
2023-11-14T04:11:55.643Z,97.62
2023-11-14T04:14:26.655Z,97.36
2023-11-14T04:16:58.321Z,96.94
2023-11-14T04:19:29.677Z,96.78
2023-11-14T04:21:59.233Z,96.76
2023-11-14T04:24:30.088Z,96.71
2023-11-14T04:27:01.566Z,96.96
2023-11-14T04:29:32.949Z,97.50
2023-11-14T04:32:02.643Z,98.03
2023-11-14T04:34:34.931Z,98.09
2023-11-14T04:37:06.170Z,98.20
2023-11-14T04:39:38.472Z,98.50
2023-11-14T04:42:09.800Z,98.96
2023-11-14T04:44:40.901Z,99.35
2023-11-14T04:47:12.232Z,99.58
2023-11-14T04:49:41.846Z,99.66
2023-11-14T04:52:12.798Z,99.62
2023-11-14T04:54:43.788Z,99.61
2023-11-14T04:57:14.827Z,99.62
2023-11-14T04:59:45.836Z,99.66
2023-11-14T05:02:16.906Z,99.67
2023-11-14T05:04:48.201Z,99.87
2023-11-14T05:07:19.292Z,99.94
2023-11-14T05:09:50.901Z,100.00
2023-11-14T05:12:21.907Z,100.00
2023-11-14T05:14:52.870Z,100.00
2023-11-14T05:17:25.080Z,100.00
2023-11-14T05:19:58.593Z,100.00
2023-11-14T05:22:30.010Z,100.00
2023-11-14T05:25:01.008Z,100.00
2023-11-14T05:27:33.400Z,100.00
2023-11-14T05:30:04.626Z,100.00
2023-11-14T05:32:34.112Z,100.00
2023-11-14T05:35:05.809Z,100.00
2023-11-14T05:37:38.062Z,100.00
2023-11-14T05:40:11.822Z,100.00
2023-11-14T05:42:43.264Z,100.00
2023-11-14T05:45:14.679Z,100.00
2023-11-14T05:47:46.231Z,100.00
2023-11-14T05:50:17.512Z,100.00
2023-11-14T05:52:48.448Z,100.00
2023-11-14T05:55:19.455Z,100.00
2023-11-14T05:57:50.485Z,100.00
2023-11-14T06:00:21.876Z,100.00
2023-11-14T06:02:54.197Z,100.00
2023-11-14T06:05:25.734Z,100.00
2023-11-14T06:07:56.689Z,100.00
2023-11-14T06:10:26.140Z,100.00
2023-11-14T06:12:59.568Z,100.00
2023-11-14T06:15:31.017Z,99.99
2023-11-14T06:18:02.149Z,99.86
2023-11-14T06:20:33.933Z,99.68
2023-11-14T06:23:05.454Z,99.62
2023-11-14T06:25:37.252Z,99.44
2023-11-14T06:28:10.638Z,99.35
2023-11-14T06:30:41.927Z,99.36
2023-11-14T06:33:13.162Z,99.35
2023-11-14T06:35:44.549Z,99.27
2023-11-14T06:38:15.615Z,99.29
2023-11-14T06:40:46.926Z,99.22
2023-11-14T06:43:18.079Z,99.30
2023-11-14T06:45:49.349Z,99.06
2023-11-14T06:48:20.437Z,98.98
2023-11-14T06:50:51.929Z,98.88
2023-11-14T06:53:22.903Z,98.69
2023-11-14T06:55:52.398Z,98.72
2023-11-14T06:58:22.384Z,98.75
2023-11-14T07:00:53.774Z,98.79
2023-11-14T07:03:25.080Z,98.72
2023-11-14T07:05:54.726Z,98.81
2023-11-14T07:08:25.941Z,98.71
2023-11-14T07:10:57.497Z,98.72
2023-11-14T07:13:28.720Z,98.67
2023-11-14T07:16:00.024Z,98.59
2023-11-14T07:18:31.331Z,98.64
2023-11-14T07:21:02.507Z,98.54
2023-11-14T07:23:31.851Z,98.36
2023-11-14T07:26:02.875Z,98.35
2023-11-14T07:28:34.729Z,98.17
2023-11-14T07:31:06.559Z,98.22
2023-11-14T07:33:38.032Z,98.08
2023-11-14T07:36:10.096Z,98.10
2023-11-14T07:38:40.986Z,98.08
2023-11-14T07:41:12.256Z,98.03
2023-11-14T07:43:43.222Z,97.92
2023-11-14T07:46:13.114Z,97.77
2023-11-14T07:48:44.270Z,97.63
2023-11-14T07:51:13.521Z,97.63
2023-11-14T07:53:47.684Z,97.63
2023-11-14T07:56:18.725Z,97.53
2023-11-14T07:58:49.824Z,97.35
2023-11-14T08:01:19.091Z,97.34
2023-11-14T08:03:51.231Z,97.09
2023-11-14T08:06:22.131Z,96.97
2023-11-14T08:08:53.181Z,97.11
2023-11-14T08:11:23.994Z,97.02
2023-11-14T08:13:53.766Z,96.79
2023-11-14T08:16:24.764Z,96.71
2023-11-14T08:18:55.755Z,96.56
2023-11-14T08:21:25.962Z,96.47
2023-11-14T08:23:57.192Z,96.23
2023-11-14T08:26:28.054Z,96.15
2023-11-14T08:28:58.856Z,95.84
2023-11-14T08:31:30.221Z,95.62
2023-11-14T08:34:01.571Z,95.65
2023-11-14T08:36:34.008Z,95.52
2023-11-14T08:39:04.979Z,95.55
2023-11-14T08:41:36.202Z,95.23
2023-11-14T08:44:08.922Z,94.97
2023-11-14T08:46:39.980Z,95.10
2023-11-14T08:49:09.321Z,95.15
2023-11-14T08:51:40.182Z,94.92
2023-11-14T08:54:09.708Z,94.78
2023-11-14T08:56:41.811Z,94.67
2023-11-14T08:59:14.836Z,94.69
2023-11-14T09:01:47.413Z,94.64
2023-11-14T09:04:19.398Z,94.50
2023-11-14T09:06:52.694Z,94.27
2023-11-14T09:09:24.456Z,94.13
2023-11-14T09:11:55.587Z,93.93
2023-11-14T09:14:28.231Z,93.79
2023-11-14T09:16:59.100Z,93.70
2023-11-14T09:19:30.111Z,93.41
2023-11-14T09:21:59.641Z,93.25
2023-11-14T09:24:30.770Z,93.10
2023-11-14T09:27:01.875Z,92.82
2023-11-14T09:29:33.801Z,92.32
2023-11-14T09:32:04.560Z,92.26
2023-11-14T09:34:35.684Z,92.14
2023-11-14T09:37:05.624Z,92.13
2023-11-14T09:39:36.595Z,91.64
2023-11-14T09:42:06.319Z,91.59
2023-11-14T09:44:35.849Z,91.20
2023-11-14T09:47:08.978Z,91.21
2023-11-14T09:49:43.624Z,91.15
2023-11-14T09:52:15.561Z,90.65
2023-11-14T09:54:46.943Z,90.33
2023-11-14T09:57:20.196Z,90.08
2023-11-14T09:59:51.177Z,90.15
2023-11-14T10:02:24.113Z,89.85
2023-11-14T10:05:03.632Z,89.35
2023-11-14T10:07:42.518Z,88.59
2023-11-14T10:10:14.671Z,88.60
2023-11-14T10:12:46.077Z,88.26
2023-11-14T10:15:28.680Z,87.74
2023-11-14T10:18:00.584Z,88.04
2023-11-14T10:23:24.227Z,87.57
2023-11-14T10:26:07.700Z,86.84
2023-11-14T10:28:39.878Z,87.14
2023-11-14T10:31:16.125Z,86.99
2023-11-14T10:33:49.350Z,86.17
2023-11-14T10:36:21.132Z,86.05
2023-11-14T10:39:05.812Z,85.86
2023-11-14T10:41:36.897Z,85.90
2023-11-14T10:44:13.454Z,85.13
2023-11-14T10:46:52.484Z,84.55
2023-11-14T10:49:24.712Z,84.76
2023-11-14T10:51:56.322Z,84.61
2023-11-14T10:54:29.716Z,84.34
2023-11-14T10:57:05.706Z,83.86
2023-11-14T10:59:42.978Z,83.59
2023-11-14T11:02:15.683Z,83.96
2023-11-14T11:04:46.896Z,83.96
2023-11-14T11:07:19.250Z,84.15
2023-11-14T11:09:51.248Z,83.73
2023-11-14T11:12:22.560Z,83.81
2023-11-14T11:14:54.763Z,83.33
2023-11-14T11:17:40.731Z,83.26
2023-11-14T11:20:23.932Z,83.49
2023-11-14T11:23:10.001Z,83.26
2023-11-14T11:25:42.732Z,82.89
2023-11-14T11:28:35.719Z,82.26
2023-11-14T11:31:13.325Z,82.22
2023-11-14T11:33:43.553Z,82.14
2023-11-14T11:36:36.193Z,82.11
2023-11-14T11:39:10.296Z,82.29
2023-11-14T11:41:57.657Z,82.04
2023-11-14T11:44:39.864Z,82.19
2023-11-14T11:47:38.380Z,82.43
2023-11-14T11:50:29.704Z,82.93
2023-11-14T11:53:05.478Z,82.67
2023-11-14T11:55:38.082Z,82.79
2023-11-14T11:58:11.005Z,82.26
2023-11-14T12:00:42.107Z,82.40
2023-11-14T12:03:17.381Z,82.68
2023-11-14T12:05:49.461Z,82.52
2023-11-14T12:08:20.377Z,81.95
2023-11-14T12:10:51.953Z,82.58
2023-11-14T12:13:24.106Z,82.63
2023-11-14T12:15:56.115Z,82.81
2023-11-14T12:18:27.675Z,82.53
2023-11-14T12:20:58.831Z,82.28
2023-11-14T12:23:30.532Z,82.32
2023-11-14T12:26:02.018Z,81.82
2023-11-14T12:28:40.678Z,81.90
2023-11-14T12:31:13.113Z,81.58
2023-11-14T12:33:51.934Z,81.45
2023-11-14T12:36:26.683Z,80.35
2023-11-14T12:38:58.986Z,80.90
2023-11-14T12:41:31.535Z,80.86
2023-11-14T12:44:08.356Z,80.60
2023-11-14T12:46:40.904Z,80.44
2023-11-14T12:49:17.409Z,80.56
2023-11-14T12:51:51.722Z,80.12
2023-11-14T12:54:24.657Z,79.99
2023-11-14T12:56:56.587Z,80.09
2023-11-14T12:59:28.189Z,80.34
2023-11-14T13:01:59.367Z,80.33
2023-11-14T13:04:30.481Z,79.70
2023-11-14T13:07:01.545Z,80.06
2023-11-14T13:09:33.058Z,80.22
2023-11-14T13:12:05.433Z,80.32
2023-11-14T13:14:38.401Z,80.06
2023-11-14T13:17:11.102Z,80.09
2023-11-14T13:19:43.967Z,80.06
2023-11-14T13:22:22.335Z,80.09
2023-11-14T13:24:56.665Z,80.20
2023-11-14T13:27:28.223Z,80.08
2023-11-14T13:29:59.163Z,80.44
2023-11-14T13:32:32.431Z,79.88
2023-11-14T13:35:07.200Z,79.77
2023-11-14T13:37:38.614Z,79.88
2023-11-14T13:40:12.375Z,79.56
2023-11-14T13:42:43.362Z,80.01
2023-11-14T13:45:15.126Z,80.00
2023-11-14T13:47:46.124Z,80.09
2023-11-14T13:50:17.225Z,80.07
2023-11-14T13:52:48.467Z,80.37
2023-11-14T13:55:19.948Z,79.76
2023-11-14T13:57:51.122Z,79.77
2023-11-14T14:00:24.097Z,79.55
2023-11-14T14:02:55.282Z,79.64
2023-11-14T14:05:26.469Z,79.65
2023-11-14T14:07:57.717Z,79.92
2023-11-14T14:10:28.723Z,80.23
2023-11-14T14:12:59.925Z,80.01
2023-11-14T14:15:31.835Z,80.31
2023-11-14T14:18:04.186Z,80.41
2023-11-14T14:20:37.680Z,80.58
2023-11-14T14:23:09.407Z,80.81
2023-11-14T14:25:40.364Z,81.08
2023-11-14T14:28:11.234Z,81.43
2023-11-14T14:30:42.239Z,81.77
2023-11-14T14:33:13.626Z,82.13
2023-11-14T14:35:42.909Z,82.25
2023-11-14T14:38:13.143Z,82.46
2023-11-14T14:40:45.727Z,82.52
2023-11-14T14:43:16.595Z,82.78
2023-11-14T14:45:48.082Z,82.90
2023-11-14T14:48:19.062Z,82.82
2023-11-14T14:50:49.578Z,83.04
2023-11-14T14:53:21.471Z,83.12
2023-11-14T14:55:52.976Z,83.13
2023-11-14T14:58:24.815Z,83.06
2023-11-14T15:00:55.889Z,83.13
2023-11-14T15:03:27.195Z,83.19
2023-11-14T15:06:01.136Z,83.32
2023-11-14T15:08:34.359Z,83.23
2023-11-14T15:11:05.772Z,83.60
2023-11-14T15:13:36.675Z,83.89
2023-11-14T15:16:07.092Z,84.30
2023-11-14T15:18:38.073Z,84.39
2023-11-14T15:21:10.167Z,84.54
2023-11-14T15:23:42.320Z,84.59
2023-11-14T15:26:13.335Z,84.81
2023-11-14T15:28:44.352Z,84.85
2023-11-14T15:31:15.592Z,84.92
2023-11-14T15:33:46.706Z,84.88
2023-11-14T15:36:17.677Z,84.99
2023-11-14T15:38:49.849Z,85.05
2023-11-14T15:41:23.371Z,85.09
2023-11-14T15:43:56.336Z,85.12
2023-11-14T15:46:27.592Z,85.12
2023-11-14T15:48:58.487Z,85.20
2023-11-14T15:51:27.986Z,85.30
2023-11-14T15:53:58.784Z,85.44
2023-11-14T15:56:30.823Z,85.44
2023-11-14T15:59:02.209Z,85.71
2023-11-14T16:01:33.342Z,85.74
2023-11-14T16:04:04.490Z,85.93
2023-11-14T16:06:35.809Z,86.21
2023-11-14T16:09:09.314Z,86.25
2023-11-14T16:11:40.128Z,86.40
2023-11-14T16:14:09.629Z,86.65
2023-11-14T16:16:40.490Z,86.82
2023-11-14T16:19:11.447Z,86.89
2023-11-14T16:21:41.137Z,86.95
2023-11-14T16:24:11.336Z,87.16
2023-11-14T16:26:42.317Z,87.18
2023-11-14T16:29:13.317Z,87.22
2023-11-14T16:31:45.417Z,87.34
2023-11-14T16:34:16.528Z,87.35
2023-11-14T16:36:47.567Z,87.30
2023-11-14T16:39:18.567Z,87.41
2023-11-14T16:41:50.390Z,87.53
2023-11-14T16:44:22.012Z,87.62
2023-11-14T16:46:53.846Z,87.55
2023-11-14T16:49:25.328Z,87.91
2023-11-14T16:51:54.699Z,87.70
2023-11-14T16:54:26.080Z,87.83
2023-11-14T16:56:57.153Z,88.03
2023-11-14T16:59:28.282Z,88.33
2023-11-14T17:01:59.288Z,88.63
2023-11-14T17:04:30.597Z,88.91
2023-11-14T17:07:02.224Z,89.09
2023-11-14T17:09:33.500Z,89.27
2023-11-14T17:12:04.955Z,89.41
2023-11-14T17:14:36.520Z,89.63
2023-11-14T17:17:07.643Z,89.66
2023-11-14T17:19:39.781Z,89.64
2023-11-14T17:22:10.731Z,89.66
2023-11-14T17:24:40.936Z,89.69
2023-11-14T17:27:14.103Z,89.93
2023-11-14T17:29:45.196Z,89.85
2023-11-14T17:32:16.281Z,89.96
2023-11-14T17:34:48.457Z,90.05
2023-11-14T17:37:21.706Z,90.01
2023-11-14T17:39:52.746Z,90.00
2023-11-14T17:42:23.734Z,89.90
2023-11-14T17:44:54.651Z,89.90
2023-11-14T17:47:26.065Z,89.87
2023-11-14T17:49:58.436Z,89.76
2023-11-14T17:52:29.722Z,89.51
2023-11-14T17:55:01.358Z,89.38
2023-11-14T17:57:32.504Z,89.39
2023-11-14T18:00:03.551Z,89.35
2023-11-14T18:02:36.852Z,89.09
2023-11-14T18:05:10.247Z,89.08
2023-11-14T18:07:41.674Z,89.11
2023-11-14T18:10:13.601Z,89.05
2023-11-14T18:12:45.698Z,88.74
2023-11-14T18:15:18.627Z,88.67
2023-11-14T18:17:50.771Z,88.50
2023-11-14T18:20:22.027Z,88.53
2023-11-14T18:22:54.788Z,88.06
2023-11-14T18:25:25.982Z,87.91
2023-11-14T18:27:57.393Z,87.86
2023-11-14T18:30:28.325Z,87.76
2023-11-14T18:32:59.359Z,87.36
2023-11-14T18:35:28.984Z,87.06
2023-11-14T18:38:00.042Z,86.85
2023-11-14T18:40:32.971Z,86.53
2023-11-14T18:43:04.388Z,86.47
2023-11-14T18:45:35.902Z,86.07
2023-11-14T18:48:07.557Z,85.86
2023-11-14T18:50:38.641Z,86.00
2023-11-14T18:53:11.088Z,85.54
2023-11-14T18:55:41.909Z,85.37
2023-11-14T18:58:13.675Z,85.11
2023-11-14T19:00:44.507Z,84.85
2023-11-14T19:03:14.255Z,84.85
2023-11-14T19:05:45.382Z,84.95
2023-11-14T19:08:16.598Z,84.96
2023-11-14T19:10:48.160Z,84.86
2023-11-14T19:13:19.332Z,85.11
2023-11-14T19:15:48.796Z,85.23
2023-11-14T19:18:22.250Z,85.36
2023-11-14T19:21:20.533Z,85.38
2023-11-14T19:23:45.221Z,85.53
2023-11-14T19:26:16.718Z,85.31
2023-11-14T19:28:48.011Z,85.32
2023-11-14T19:31:20.245Z,85.08
2023-11-14T19:33:51.388Z,84.92
2023-11-14T19:36:22.262Z,84.94
2023-11-14T19:38:53.587Z,84.76
2023-11-14T19:41:25.502Z,84.84
2023-11-14T19:43:57.323Z,84.52
2023-11-14T19:46:28.648Z,84.15
2023-11-14T19:49:00.237Z,83.93
2023-11-14T19:51:32.418Z,83.78
2023-11-14T19:54:03.741Z,83.70
2023-11-14T19:56:34.982Z,83.68
2023-11-14T19:59:07.488Z,83.37
2023-11-14T20:01:38.572Z,83.46
2023-11-14T20:04:11.177Z,83.36
2023-11-14T20:06:42.332Z,83.14
2023-11-14T20:09:14.325Z,83.23
2023-11-14T20:11:45.436Z,83.30
2023-11-14T20:14:18.053Z,83.19
2023-11-14T20:16:49.898Z,83.21
2023-11-14T20:19:21.423Z,83.21
2023-11-14T20:21:52.548Z,83.11
2023-11-14T20:24:24.648Z,83.13
2023-11-14T20:26:55.720Z,83.12
2023-11-14T20:29:27.876Z,83.07
2023-11-14T20:31:58.923Z,82.86
2023-11-14T20:34:30.206Z,82.99
2023-11-14T20:37:01.348Z,83.00
2023-11-14T20:39:35.755Z,82.81
2023-11-14T20:42:09.054Z,82.84
2023-11-14T20:44:41.316Z,82.64
2023-11-14T20:47:12.809Z,82.86
2023-11-14T20:49:44.043Z,82.73
2023-11-14T20:52:15.735Z,82.61
2023-11-14T20:54:47.312Z,82.63
2023-11-14T20:57:18.323Z,82.73
2023-11-14T20:59:51.388Z,82.75
2023-11-14T21:02:22.284Z,82.79
2023-11-14T21:04:54.161Z,82.74
2023-11-14T21:07:25.135Z,82.90
2023-11-14T21:09:56.343Z,82.88
2023-11-14T21:12:27.553Z,82.93
2023-11-14T21:14:59.342Z,82.95
2023-11-14T21:17:36.354Z,83.51
2023-11-14T21:20:14.973Z,84.15
2023-11-14T21:22:47.178Z,84.52
2023-11-14T21:25:19.174Z,85.00
2023-11-14T21:27:51.080Z,85.36
2023-11-14T21:30:26.773Z,85.88
2023-11-14T21:33:03.832Z,86.34
2023-11-14T21:35:33.622Z,86.87
2023-11-14T21:38:04.451Z,87.42
2023-11-14T21:40:35.671Z,87.68
2023-11-14T21:43:06.648Z,88.14
2023-11-14T21:45:37.606Z,88.51
2023-11-14T21:48:07.354Z,89.37
2023-11-14T21:50:38.595Z,89.74
2023-11-14T21:53:09.807Z,90.32
2023-11-14T21:55:41.969Z,90.55
2023-11-14T21:58:13.123Z,90.78
2023-11-14T22:00:43.069Z,91.12
2023-11-14T22:03:14.075Z,91.38
2023-11-14T22:05:45.396Z,91.93
2023-11-14T22:08:16.667Z,92.21
2023-11-14T22:10:48.327Z,92.46
2023-11-14T22:13:19.276Z,92.85
2023-11-14T22:15:50.600Z,93.31
2023-11-14T22:18:21.580Z,93.69
2023-11-14T22:20:51.084Z,93.80
2023-11-14T22:23:24.657Z,93.94
2023-11-14T22:25:55.852Z,94.10
2023-11-14T22:28:28.248Z,94.20
2023-11-14T22:30:59.117Z,94.49
2023-11-14T22:33:30.051Z,94.67
2023-11-14T22:36:01.036Z,94.89
2023-11-14T22:38:32.309Z,95.16
2023-11-14T22:41:01.666Z,95.25
2023-11-14T22:43:32.644Z,95.58
2023-11-14T22:46:02.010Z,95.61
2023-11-14T22:48:33.207Z,95.90
2023-11-14T22:51:04.202Z,95.95
2023-11-14T22:53:35.193Z,95.96
2023-11-14T22:56:05.028Z,96.24
2023-11-14T22:58:35.984Z,96.21
2023-11-14T23:01:07.407Z,96.44
2023-11-14T23:03:38.346Z,96.66
2023-11-14T23:06:08.266Z,96.71
2023-11-14T23:08:39.728Z,96.95
2023-11-14T23:11:10.885Z,97.08
2023-11-14T23:13:42.015Z,97.23
2023-11-14T23:16:13.087Z,97.33
2023-11-14T23:18:44.729Z,97.42
2023-11-14T23:21:15.806Z,97.53
2023-11-14T23:23:46.943Z,97.65
2023-11-14T23:26:19.015Z,97.60
2023-11-14T23:28:51.241Z,97.63
2023-11-14T23:31:22.817Z,97.69
2023-11-14T23:33:53.622Z,97.58
2023-11-14T23:36:25.144Z,97.65
2023-11-14T23:38:57.202Z,97.82
2023-11-14T23:41:29.010Z,97.89
2023-11-14T23:44:00.048Z,97.86
2023-11-14T23:46:29.404Z,97.79
2023-11-14T23:49:00.547Z,97.77
2023-11-14T23:51:30.183Z,97.59
2023-11-14T23:54:01.453Z,97.64
2023-11-14T23:56:35.009Z,97.66
2023-11-14T23:59:07.785Z,97.73
